DLH2F EDDW-EDDH
Flight info
| Callsign | DLH2F |
|---|---|
| Flight time | 0h 22m |
| Altitude | 14000 |
| Route | WSN1M WSN Y850 MUBZI M105 RIBSO RIBSO3P |
| Aircraft | A320/M-SDE3FGHIRWY/LB1 |
Departure
| Time | 2026-04-26 23:28 |
|---|---|
| Airport | Bremen Airport (EDDW) |
Arrival
| Time | 2026-04-26 23:50 |
|---|---|
| Airport | Hamburg Helmut Schmidt Airport (EDDH) |
| Time | Latitude | Longitude | Altitude | Speed | Heading |
|---|---|---|---|---|---|
| 2026-04-26 23:26 | 53.04692 | 8.77471 | 24 ft | 10 kts | 153° |
| 2026-04-26 23:27 | 53.04662 | 8.77568 | 21 ft | 10 kts | 96° |
| 2026-04-26 23:27 | 53.04663 | 8.77604 | 21 ft | 0 kts | 87° |
| 2026-04-26 23:27 | 53.04668 | 8.77801 | 21 ft | 51 kts | 88° |
| 2026-04-26 23:27 | 53.04689 | 8.78768 | 23 ft | 116 kts | 88° |
| 2026-04-26 23:28 | 53.04724 | 8.80413 | 136 ft | 156 kts | 87° |
| 2026-04-26 23:28 | 53.04735 | 8.82246 | 792 ft | 161 kts | 89° |
| 2026-04-26 23:28 | 53.04703 | 8.84175 | 1400 ft | 174 kts | 90° |
| 2026-04-26 23:28 | 53.04653 | 8.86228 | 1903 ft | 185 kts | 88° |
| 2026-04-26 23:29 | 53.04655 | 8.88428 | 2422 ft | 195 kts | 84° |
| 2026-04-26 23:29 | 53.04742 | 8.90740 | 2939 ft | 207 kts | 83° |
| 2026-04-26 23:29 | 53.04843 | 8.93258 | 3267 ft | 231 kts | 83° |
| 2026-04-26 23:29 | 53.05063 | 8.96027 | 3696 ft | 252 kts | 66° |
| 2026-04-26 23:30 | 53.06127 | 8.98292 | 4396 ft | 254 kts | 28° |
| 2026-04-26 23:30 | 53.07780 | 8.99235 | 5312 ft | 252 kts | 8° |
| 2026-04-26 23:30 | 53.09518 | 8.99636 | 6271 ft | 253 kts | 3° |
| 2026-04-26 23:30 | 53.11280 | 8.99878 | 7183 ft | 254 kts | 359° |
| 2026-04-26 23:31 | 53.13053 | 8.99843 | 8044 ft | 256 kts | 357° |
| 2026-04-26 23:31 | 53.14850 | 8.99877 | 8936 ft | 259 kts | 358° |
| 2026-04-26 23:31 | 53.16666 | 8.99952 | 9810 ft | 262 kts | 358° |
| 2026-04-26 23:31 | 53.18480 | 9.00031 | 10578 ft | 269 kts | 358° |
| 2026-04-26 23:32 | 53.20437 | 9.00107 | 10846 ft | 293 kts | 358° |
| 2026-04-26 23:32 | 53.22553 | 9.00178 | 11105 ft | 314 kts | 358° |
| 2026-04-26 23:32 | 53.24774 | 9.00251 | 11682 ft | 323 kts | 358° |
| 2026-04-26 23:32 | 53.27030 | 9.00323 | 12387 ft | 327 kts | 358° |
| 2026-04-26 23:33 | 53.29325 | 9.00391 | 13112 ft | 331 kts | 357° |
| 2026-04-26 23:33 | 53.31643 | 9.00454 | 13837 ft | 335 kts | 357° |
| 2026-04-26 23:33 | 53.33990 | 9.00520 | 14211 ft | 338 kts | 357° |
| 2026-04-26 23:33 | 53.36362 | 9.00587 | 14303 ft | 347 kts | 357° |
| 2026-04-26 23:34 | 53.38831 | 9.00652 | 14319 ft | 359 kts | 357° |
| 2026-04-26 23:34 | 53.41339 | 9.00722 | 14314 ft | 361 kts | 357° |
| 2026-04-26 23:34 | 53.43829 | 9.00798 | 14316 ft | 362 kts | 357° |
| 2026-04-26 23:34 | 53.46352 | 9.00878 | 14315 ft | 362 kts | 357° |
| 2026-04-26 23:35 | 53.48872 | 9.00956 | 14317 ft | 360 kts | 357° |
| 2026-04-26 23:35 | 53.51328 | 9.01222 | 14243 ft | 348 kts | 4° |
| 2026-04-26 23:35 | 53.53658 | 9.02147 | 14065 ft | 341 kts | 13° |
| 2026-04-26 23:35 | 53.55836 | 9.03697 | 13660 ft | 341 kts | 23° |
| 2026-04-26 23:36 | 53.57840 | 9.05849 | 13184 ft | 342 kts | 30° |
| 2026-04-26 23:36 | 53.59764 | 9.08171 | 12703 ft | 339 kts | 30° |
| 2026-04-26 23:36 | 53.61673 | 9.10462 | 12230 ft | 336 kts | 30° |
| 2026-04-26 23:36 | 53.63570 | 9.12730 | 11772 ft | 333 kts | 30° |
| 2026-04-26 23:37 | 53.65321 | 9.15285 | 11319 ft | 337 kts | 45° |
| 2026-04-26 23:37 | 53.66492 | 9.18729 | 10877 ft | 344 kts | 65° |
| 2026-04-26 23:37 | 53.67215 | 9.22586 | 10404 ft | 344 kts | 68° |
| 2026-04-26 23:37 | 53.67893 | 9.26411 | 10164 ft | 334 kts | 68° |
| 2026-04-26 23:38 | 53.68532 | 9.30102 | 10035 ft | 322 kts | 68° |
| 2026-04-26 23:38 | 53.69148 | 9.33675 | 9896 ft | 310 kts | 68° |
| 2026-04-26 23:38 | 53.69743 | 9.37107 | 9769 ft | 299 kts | 68° |
| 2026-04-26 23:38 | 53.70317 | 9.40383 | 9536 ft | 293 kts | 68° |
| 2026-04-26 23:39 | 53.70895 | 9.43669 | 9322 ft | 290 kts | 68° |
| 2026-04-26 23:39 | 53.71467 | 9.46916 | 9009 ft | 288 kts | 68° |
| 2026-04-26 23:39 | 53.72036 | 9.50146 | 8639 ft | 286 kts | 68° |
| 2026-04-26 23:39 | 53.72601 | 9.53357 | 8286 ft | 284 kts | 68° |
| 2026-04-26 23:40 | 53.73161 | 9.56542 | 7914 ft | 282 kts | 69° |
| 2026-04-26 23:40 | 53.73716 | 9.59708 | 7557 ft | 280 kts | 69° |
| 2026-04-26 23:40 | 53.74266 | 9.62854 | 7197 ft | 278 kts | 69° |
| 2026-04-26 23:40 | 53.74811 | 9.65977 | 6845 ft | 276 kts | 69° |
| 2026-04-26 23:41 | 53.75349 | 9.69076 | 6473 ft | 274 kts | 70° |
| 2026-04-26 23:41 | 53.75883 | 9.72148 | 6281 ft | 271 kts | 70° |
| 2026-04-26 23:41 | 53.76412 | 9.75197 | 5877 ft | 270 kts | 70° |
| 2026-04-26 23:41 | 53.76937 | 9.78228 | 5480 ft | 268 kts | 71° |
| 2026-04-26 23:42 | 53.77457 | 9.81242 | 5108 ft | 266 kts | 71° |
| 2026-04-26 23:42 | 53.78477 | 9.87166 | 4433 ft | 259 kts | 71° |
| 2026-04-26 23:42 | 53.78967 | 9.90026 | 4301 ft | 247 kts | 71° |
| 2026-04-26 23:43 | 53.79434 | 9.92770 | 4176 ft | 237 kts | 71° |
| 2026-04-26 23:43 | 53.79888 | 9.95433 | 4056 ft | 234 kts | 71° |
| 2026-04-26 23:43 | 53.80339 | 9.98066 | 4006 ft | 233 kts | 71° |
| 2026-04-26 23:43 | 53.80792 | 10.00704 | 4001 ft | 233 kts | 71° |
| 2026-04-26 23:44 | 53.81241 | 10.03343 | 4013 ft | 233 kts | 72° |
| 2026-04-26 23:44 | 53.81690 | 10.05980 | 4007 ft | 233 kts | 71° |
| 2026-04-26 23:44 | 53.82140 | 10.08614 | 4006 ft | 233 kts | 72° |
| 2026-04-26 23:44 | 53.82557 | 10.11277 | 4000 ft | 234 kts | 80° |
| 2026-04-26 23:45 | 53.82450 | 10.13941 | 3891 ft | 223 kts | 108° |
| 2026-04-26 23:45 | 53.81683 | 10.16146 | 3645 ft | 216 kts | 135° |
| 2026-04-26 23:45 | 53.80450 | 10.17517 | 3273 ft | 212 kts | 161° |
| 2026-04-26 23:45 | 53.79035 | 10.18011 | 3006 ft | 210 kts | 172° |
| 2026-04-26 23:46 | 53.77589 | 10.18407 | 3000 ft | 206 kts | 172° |
| 2026-04-26 23:46 | 53.76232 | 10.18791 | 2997 ft | 191 kts | 172° |
| 2026-04-26 23:46 | 53.74941 | 10.19141 | 2998 ft | 185 kts | 177° |
| 2026-04-26 23:46 | 53.73687 | 10.18938 | 2997 ft | 180 kts | 199° |
| 2026-04-26 23:47 | 53.72583 | 10.18013 | 2886 ft | 176 kts | 221° |
| 2026-04-26 23:47 | 53.71748 | 10.16549 | 2692 ft | 173 kts | 233° |
| 2026-04-26 23:47 | 53.70984 | 10.14987 | 2476 ft | 172 kts | 233° |
| 2026-04-26 23:47 | 53.70223 | 10.13435 | 2234 ft | 172 kts | 233° |
| 2026-04-26 23:48 | 53.69468 | 10.11895 | 1997 ft | 166 kts | 234° |
| 2026-04-26 23:48 | 53.68765 | 10.10468 | 1772 ft | 152 kts | 234° |
| 2026-04-26 23:48 | 53.68100 | 10.09119 | 1521 ft | 148 kts | 234° |
| 2026-04-26 23:48 | 53.67435 | 10.07813 | 1329 ft | 146 kts | 232° |
| 2026-04-26 23:49 | 53.66760 | 10.06532 | 1108 ft | 145 kts | 233° |
| 2026-04-26 23:49 | 53.66123 | 10.05216 | 878 ft | 145 kts | 235° |
| 2026-04-26 23:49 | 53.65501 | 10.03888 | 669 ft | 144 kts | 234° |
| 2026-04-26 23:49 | 53.64873 | 10.02590 | 444 ft | 142 kts | 232° |
| 2026-04-26 23:50 | 53.64240 | 10.01282 | 260 ft | 142 kts | 232° |
| 2026-04-26 23:50 | 53.63612 | 10.00000 | 87 ft | 140 kts | 233° |
| 2026-04-26 23:50 | 53.63090 | 9.98930 | 46 ft | 79 kts | 230° |
| 2026-04-26 23:50 | 53.62868 | 9.98531 | 44 ft | 34 kts | 204° |
| 2026-04-26 23:51 | 53.62701 | 9.98510 | 47 ft | 17 kts | 120° |
| 2026-04-26 23:51 | 53.62744 | 9.98661 | 47 ft | 15 kts | 52° |
| 2026-04-26 23:51 | 53.62810 | 9.98795 | 47 ft | 15 kts | 52° |
| 2026-04-26 23:51 | 53.62877 | 9.98930 | 47 ft | 15 kts | 49° |
| 2026-04-26 23:52 | 53.62947 | 9.99070 | 47 ft | 16 kts | 50° |
| 2026-04-26 23:52 | 53.63020 | 9.99220 | 47 ft | 17 kts | 50° |
| 2026-04-26 23:52 | 53.63096 | 9.99393 | 47 ft | 19 kts | 57° |
| 2026-04-26 23:52 | 53.63181 | 9.99587 | 47 ft | 21 kts | 49° |
| 2026-04-26 23:53 | 53.63280 | 9.99769 | 48 ft | 21 kts | 45° |
| 2026-04-26 23:53 | 53.63335 | 9.99888 | 48 ft | 6 kts | 69° |
| 2026-04-26 23:53 | 53.63317 | 9.99942 | 47 ft | 5 kts | 137° |
| 2026-04-26 23:53 | 53.63296 | 9.99971 | 48 ft | 2 kts | 141° |
| 2026-04-26 23:54 | 53.63287 | 9.99983 | 48 ft | 0 kts | 141° |